createdAt,value
2018-04-25T00:01:21.504Z,97397.57
2018-04-25T00:03:47.793Z,97393.38
2018-04-25T00:06:14.073Z,97397.23
2018-04-25T00:08:40.362Z,97388.81
2018-04-25T00:11:06.610Z,97383.61
2018-04-25T00:13:32.887Z,97379.84
2018-04-25T00:15:59.255Z,97383.77
2018-04-25T00:18:25.534Z,97375.77
2018-04-25T00:20:51.778Z,97376.03
2018-04-25T00:23:18.071Z,97371.42
2018-04-25T00:25:44.335Z,97365.97
2018-04-25T00:28:10.610Z,97366.98
2018-04-25T00:30:36.847Z,97365.16
2018-04-25T00:33:03.100Z,97369.88
2018-04-25T00:35:29.379Z,97367.09
2018-04-25T00:37:55.624Z,97365.35
2018-04-25T00:40:21.898Z,97363.28
2018-04-25T00:42:48.203Z,97363.83
2018-04-25T00:45:14.504Z,97365.64
2018-04-25T00:47:40.798Z,97364.87
2018-04-25T00:50:07.151Z,97357.14
2018-04-25T00:52:33.427Z,97367.77
2018-04-25T00:54:59.695Z,97356.56
2018-04-25T00:57:26.019Z,97362.88
2018-04-25T00:59:52.290Z,97354.96
2018-04-25T01:02:18.588Z,97354.67
2018-04-25T01:04:44.874Z,97350.45
2018-04-25T01:07:11.175Z,97352.39
2018-04-25T01:09:37.444Z,97350.56
2018-04-25T01:12:03.792Z,97340.91
2018-04-25T01:14:30.060Z,97339.85
2018-04-25T01:16:56.322Z,97331.29
2018-04-25T01:19:22.623Z,97326.75
2018-04-25T01:21:49.710Z,97325.18
2018-04-25T01:24:16.004Z,97325.16
2018-04-25T01:26:42.287Z,97326.88
2018-04-25T01:29:08.599Z,97318.92
2018-04-25T01:31:48.081Z,97317.13
2018-04-25T01:34:18.363Z,97317.69
2018-04-25T01:36:56.395Z,97310.32
2018-04-25T01:39:43.247Z,97314.63
2018-04-25T01:42:21.554Z,97309.95
2018-04-25T01:44:51.818Z,97309.19
2018-04-25T01:47:33.966Z,97310.44
2018-04-25T04:21:19.535Z,97167.77
2018-04-25T04:23:45.863Z,97174.43
2018-04-25T04:26:12.112Z,97173.75
2018-04-25T04:28:38.375Z,97177.13
2018-04-25T04:31:04.591Z,97179.28
2018-04-25T04:33:30.811Z,97175.39
2018-04-25T04:35:57.054Z,97179.56
2018-04-25T04:38:23.271Z,97179.55
2018-04-25T04:40:49.485Z,97180.14
2018-04-25T04:43:15.753Z,97182.12
2018-04-25T04:45:41.978Z,97194.88
2018-04-25T04:48:08.208Z,97192.53
2018-04-25T04:50:34.466Z,97198.38
2018-04-25T04:53:00.693Z,97195.58
2018-04-25T04:55:26.919Z,97196.95
2018-04-25T04:57:53.170Z,97187.94
2018-04-25T05:00:19.399Z,97195.94
2018-04-25T05:02:45.639Z,97191.05
2018-04-25T05:05:11.902Z,97189.66
2018-04-25T05:07:38.124Z,97188.13
2018-04-25T05:10:04.376Z,97189.59
2018-04-25T05:12:30.630Z,97186.27
2018-04-25T05:14:56.934Z,97191.88
2018-04-25T05:17:23.182Z,97199.42
2018-04-25T05:19:49.444Z,97193.75
2018-04-25T05:22:15.703Z,97192.73
2018-04-25T05:24:41.977Z,97196.37
2018-04-25T05:27:08.218Z,97186.88
2018-04-25T05:29:34.448Z,97189.29
2018-04-25T05:32:00.740Z,97190.72
2018-04-25T05:34:26.983Z,97182.36
2018-04-25T05:36:53.219Z,97178.54
2018-04-25T05:39:19.444Z,97187.91
2018-04-25T05:41:45.708Z,97184.48
2018-04-25T05:44:11.934Z,97184.58
2018-04-25T05:46:38.183Z,97184.31
2018-04-25T05:49:04.447Z,97188.72
2018-04-25T05:51:30.719Z,97182.39
2018-04-25T05:53:56.951Z,97184.45
2018-04-25T05:56:23.203Z,97177.14
2018-04-25T05:58:49.439Z,97176.62
2018-04-25T06:01:15.667Z,97176.81
2018-04-25T06:03:41.918Z,97174.77
2018-04-25T06:06:08.135Z,97168.87
2018-04-25T06:08:34.362Z,97169.53
2018-04-25T06:11:00.615Z,97162.80
2018-04-25T06:13:26.835Z,97169.25
2018-04-25T06:15:53.099Z,97173.80
2018-04-25T06:18:19.363Z,97174.13
2018-04-25T06:20:45.591Z,97166.52
2018-04-25T06:23:11.842Z,97159.02
2018-04-25T06:25:38.097Z,97168.61
2018-04-25T06:28:04.322Z,97173.99
2018-04-25T06:30:30.550Z,97173.98
2018-04-25T06:32:56.807Z,97166.50
2018-04-25T06:35:23.057Z,97167.13
2018-04-25T06:37:49.304Z,97168.38
2018-04-25T06:40:15.559Z,97157.73
2018-04-25T06:42:41.787Z,97164.53
2018-04-25T06:45:08.044Z,97166.78
2018-04-25T06:47:34.315Z,97159.38
2018-04-25T06:50:00.539Z,97181.16
2018-04-25T06:52:26.767Z,97164.11
2018-04-25T06:54:53.023Z,97166.19
2018-04-25T06:57:19.263Z,97174.91
2018-04-25T06:59:45.496Z,97158.60
2018-04-25T07:02:11.751Z,97161.23
2018-04-25T07:04:37.993Z,97171.97
2018-04-25T07:07:04.242Z,97160.68
2018-04-25T07:09:30.509Z,97175.80
2018-04-25T07:11:56.743Z,97155.26
2018-04-25T07:14:22.975Z,97158.30
2018-04-25T07:16:49.233Z,97168.34
2018-04-25T07:19:15.510Z,97147.63
2018-04-25T07:21:41.739Z,97143.25
2018-04-25T07:24:07.998Z,97140.97
2018-04-25T07:26:34.235Z,97137.08
2018-04-25T07:29:00.464Z,97141.03
2018-04-25T07:31:26.729Z,97141.98
2018-04-25T07:33:52.968Z,97143.91
2018-04-25T07:36:19.201Z,97136.70
2018-04-25T07:38:45.467Z,97130.25
2018-04-25T07:41:11.698Z,97133.56
2018-04-25T07:43:37.927Z,97128.80
2018-04-25T07:46:04.195Z,97123.59
2018-04-25T07:48:30.458Z,97130.33
2018-04-25T07:50:56.688Z,97123.52
2018-04-25T07:53:22.946Z,97124.62
2018-04-25T07:55:49.191Z,97122.14
2018-04-25T07:58:15.423Z,97135.52
2018-04-25T08:00:41.699Z,97123.48
2018-04-25T08:03:08.894Z,97127.67
2018-04-25T08:05:35.122Z,97135.98
2018-04-25T08:08:01.390Z,97126.58
2018-04-25T08:10:27.647Z,97115.41
2018-04-25T08:13:06.139Z,97116.63
2018-04-25T08:15:44.743Z,97128.31
2018-04-25T08:18:23.333Z,97104.00
2018-04-25T08:34:14.463Z,97089.87
2018-04-25T08:36:40.737Z,97095.95
2018-04-25T08:39:06.995Z,97098.83
2018-04-25T08:41:33.250Z,97108.42
2018-04-25T08:43:59.480Z,97087.92
2018-04-25T08:46:25.712Z,97102.84
2018-04-25T08:48:52.067Z,97090.00
2018-04-25T08:51:18.291Z,97092.50
2018-04-25T08:53:44.522Z,97089.70
2018-04-25T08:56:10.802Z,97097.52
2018-04-25T08:58:37.027Z,97101.49
2018-04-25T09:01:03.275Z,97112.97
2018-04-25T09:03:29.624Z,97107.77
2018-04-25T09:05:55.879Z,97128.51
2018-04-25T09:08:22.103Z,97129.02
2018-04-25T09:10:48.366Z,97112.73
2018-04-25T09:13:14.662Z,97101.30
2018-04-25T09:15:40.874Z,97112.81
2018-04-25T09:18:07.143Z,97109.52
2018-04-25T09:20:33.407Z,97117.81
2018-04-25T09:22:59.643Z,97102.64
2018-04-25T09:25:25.903Z,97107.02
2018-04-25T09:27:52.134Z,97110.41
2018-04-25T09:30:18.366Z,97121.23
2018-04-25T09:32:44.631Z,97127.52
2018-04-25T09:35:10.875Z,97112.80
2018-04-25T09:37:37.115Z,97105.67
2018-04-25T09:40:03.427Z,97108.70
2018-04-25T09:42:29.655Z,97095.39
2018-04-25T09:44:55.895Z,97101.75
2018-04-25T09:47:22.163Z,97105.72
2018-04-25T09:49:48.400Z,97121.60
2018-04-25T09:52:14.631Z,97104.19
2018-04-25T09:54:40.902Z,97111.61
2018-04-25T09:57:07.147Z,97113.73
2018-04-25T09:59:33.379Z,97109.12
2018-04-25T10:02:02.591Z,97104.42
2018-04-25T10:04:28.866Z,97114.79
2018-04-25T10:06:55.099Z,97122.84
2018-04-25T10:09:21.366Z,97112.77
2018-04-25T10:11:47.625Z,97107.08
2018-04-25T10:14:13.867Z,97117.14
2018-04-25T10:16:40.137Z,97108.27
2018-04-25T10:19:06.379Z,97113.16
2018-04-25T10:21:32.652Z,97107.83
2018-04-25T10:23:58.919Z,97085.32
2018-04-25T10:26:25.187Z,97093.97
2018-04-25T10:28:51.433Z,97114.47
2018-04-25T10:31:17.783Z,97086.40
2018-04-25T10:33:44.016Z,97103.50
2018-04-25T10:36:10.259Z,97115.28
2018-04-25T10:38:36.531Z,97078.62
2018-04-25T10:41:09.898Z,97072.20
2018-04-25T10:43:36.163Z,97090.61
2018-04-25T10:46:02.411Z,97089.13
2018-04-25T10:48:28.639Z,97089.61
2018-04-25T10:50:54.910Z,97090.89
2018-04-25T10:53:21.147Z,97095.50
2018-04-25T10:55:47.382Z,97094.92
2018-04-25T10:58:13.649Z,97093.31
2018-04-25T11:00:39.893Z,97097.00
2018-04-25T11:03:06.128Z,97098.88
2018-04-25T11:05:32.387Z,97092.77
2018-04-25T11:07:58.623Z,97087.70
2018-04-25T11:10:24.871Z,97081.80
2018-04-25T11:12:51.134Z,97088.35
2018-04-25T11:15:17.366Z,97098.77
2018-04-25T11:17:43.606Z,97099.41
2018-04-25T11:20:09.926Z,97095.07
2018-04-25T11:22:36.159Z,97101.97
2018-04-25T11:25:02.403Z,97108.59
2018-04-25T11:27:28.675Z,97106.81
2018-04-25T11:29:54.902Z,97110.08
2018-04-25T11:32:21.139Z,97117.94
2018-04-25T11:34:47.403Z,97100.16
2018-04-25T11:37:13.643Z,97099.86
2018-04-25T11:39:39.877Z,97126.27
2018-04-25T11:42:06.144Z,97088.75
2018-04-25T11:44:32.383Z,97105.11
2018-04-25T11:46:58.616Z,97105.27
2018-04-25T11:49:24.870Z,97095.64
2018-04-25T11:51:51.090Z,97088.58
2018-04-25T11:54:17.329Z,97098.36
2018-04-25T11:56:43.587Z,97091.38
2018-04-25T11:59:09.819Z,97087.25
2018-04-25T12:01:36.052Z,97081.80
2018-04-25T12:04:02.386Z,97115.84
2018-04-25T12:06:28.623Z,97084.58
2018-04-25T12:08:54.850Z,97094.64
2018-04-25T12:11:21.110Z,97083.41
2018-04-25T12:13:47.399Z,97072.81
2018-04-25T12:16:13.650Z,97099.38
2018-04-25T12:18:39.979Z,97094.02
2018-04-25T12:21:06.195Z,97093.98
2018-04-25T12:23:32.430Z,97075.98
2018-04-25T12:25:58.691Z,97084.25
2018-04-25T12:28:24.925Z,97062.14
2018-04-25T12:30:51.155Z,97101.94
2018-04-25T12:33:17.419Z,97081.90
2018-04-25T12:35:43.712Z,97095.94
2018-04-25T12:38:09.908Z,97079.08
2018-04-25T12:40:36.167Z,97063.19
2018-04-25T12:43:02.414Z,97078.66
2018-04-25T12:45:28.646Z,97076.40
2018-04-25T12:47:54.906Z,97128.84
2018-04-25T12:50:21.134Z,97090.84
2018-04-25T12:52:47.371Z,97088.95
2018-04-25T12:55:13.639Z,97089.78
2018-04-25T12:57:39.956Z,97091.05
2018-04-25T13:00:06.207Z,97072.07
2018-04-25T13:02:39.435Z,97085.46
2018-04-25T13:05:05.681Z,97083.36
2018-04-25T13:07:31.912Z,97090.63
2018-04-25T13:09:58.180Z,97085.98
2018-04-25T13:12:24.407Z,97102.84
2018-04-25T13:14:50.644Z,97083.95
2018-04-25T13:17:16.930Z,97103.64
2018-04-25T13:19:43.163Z,97092.73
2018-04-25T13:22:09.409Z,97084.44
2018-04-25T13:24:35.683Z,97088.19
2018-04-25T13:27:01.923Z,97095.87
2018-04-25T13:29:28.199Z,97080.30
2018-04-25T13:31:54.465Z,97078.22
2018-04-25T13:34:20.691Z,97091.97
2018-04-25T13:36:46.927Z,97103.88
2018-04-25T13:39:13.188Z,97092.09
2018-04-25T13:41:39.424Z,97102.23
2018-04-25T13:44:05.662Z,97101.48
2018-04-25T13:46:31.965Z,97103.92
2018-04-25T13:48:58.209Z,97112.05
2018-04-25T13:51:24.438Z,97123.52
2018-04-25T13:53:50.696Z,97127.63
2018-04-25T13:56:16.935Z,97130.23
2018-04-25T13:58:43.183Z,97158.24
2018-04-25T14:01:09.439Z,97189.95
2018-04-25T14:03:35.671Z,97190.00
2018-04-25T14:06:01.933Z,97209.97
2018-04-25T14:08:28.178Z,97194.23
2018-04-25T14:10:54.439Z,97186.31
2018-04-25T14:13:20.671Z,97213.36
2018-04-25T14:15:46.936Z,97193.22
2018-04-25T14:18:13.160Z,97179.22
2018-04-25T14:20:39.423Z,97172.95
2018-04-25T14:23:05.688Z,97182.36
2018-04-25T14:25:31.911Z,97181.45
2018-04-25T14:27:58.131Z,97176.99
2018-04-25T14:30:24.480Z,97182.46
2018-04-25T14:32:50.655Z,97179.73
2018-04-25T14:35:16.915Z,97179.25
2018-04-25T14:37:43.170Z,97176.53
2018-04-25T14:40:09.394Z,97168.45
2018-04-25T14:42:35.623Z,97173.46
2018-04-25T14:45:01.892Z,97167.84
2018-04-25T14:47:28.114Z,97162.94
2018-04-25T14:49:54.343Z,97151.59
2018-04-25T14:52:20.598Z,97149.07
2018-04-25T14:54:46.827Z,97158.37
2018-04-25T14:57:13.075Z,97165.80
2018-04-25T14:59:39.347Z,97172.03
2018-04-25T15:02:05.597Z,97174.63
2018-04-25T15:04:31.848Z,97180.02
2018-04-25T15:06:58.106Z,97175.33
2018-04-25T15:09:24.344Z,97173.00
2018-04-25T15:11:50.590Z,97170.31
2018-04-25T15:14:16.851Z,97164.92
2018-04-25T15:16:43.268Z,97182.36
2018-04-25T15:19:09.682Z,97188.39
2018-04-25T15:21:35.999Z,97196.21
2018-04-25T15:24:02.252Z,97195.72
2018-04-25T15:26:28.519Z,97182.84
2018-04-25T15:28:54.774Z,97192.64
2018-04-25T15:31:21.003Z,97196.48
2018-04-25T15:33:47.226Z,97199.60
2018-04-25T15:36:13.563Z,97203.33
2018-04-25T15:38:39.756Z,97202.72
2018-04-25T15:41:05.983Z,97206.52
2018-04-25T15:43:32.250Z,97202.13
2018-04-25T15:45:58.611Z,97214.23
2018-04-25T15:48:24.875Z,97234.49
2018-04-25T15:50:51.179Z,97221.11
2018-04-25T15:53:17.456Z,97234.64
2018-04-25T15:55:43.740Z,97238.16
2018-04-25T15:58:10.026Z,97217.41
2018-04-25T16:00:36.259Z,97254.44
2018-04-25T16:03:02.733Z,97241.98
2018-04-25T16:05:29.005Z,97248.34
2018-04-25T16:07:56.330Z,97252.13
2018-04-25T16:10:22.632Z,97255.38
2018-04-25T16:12:48.891Z,97268.50
2018-04-25T16:15:15.170Z,97270.59
2018-04-25T16:17:48.306Z,97282.76
2018-04-25T16:20:14.555Z,97268.92
2018-04-25T16:22:40.809Z,97278.19
2018-04-25T16:25:07.098Z,97298.64
2018-04-25T16:27:33.318Z,97308.41
2018-04-25T16:29:59.559Z,97317.87
2018-04-25T16:32:25.835Z,97333.83
2018-04-25T16:34:52.419Z,97336.89
2018-04-25T16:37:18.707Z,97329.91
2018-04-25T16:39:44.962Z,97339.66
2018-04-25T16:42:11.186Z,97323.55
2018-04-25T16:44:37.488Z,97322.28
2018-04-25T16:47:03.763Z,97315.20
2018-04-25T16:49:30.343Z,97317.83
2018-04-25T16:51:56.753Z,97322.95
2018-04-25T16:54:23.018Z,97327.30
2018-04-25T16:56:49.440Z,97334.66
2018-04-25T16:59:15.674Z,97333.98
2018-04-25T17:01:42.079Z,97329.59
2018-04-25T17:04:08.311Z,97326.53
2018-04-25T17:06:34.834Z,97315.30
2018-04-25T17:09:01.268Z,97308.05
2018-04-25T17:11:27.727Z,97311.02
2018-04-25T17:13:54.015Z,97313.94
2018-04-25T17:16:20.290Z,97315.08
2018-04-25T17:18:46.686Z,97313.52
2018-04-25T17:21:12.966Z,97311.10
2018-04-25T17:23:39.255Z,97305.11
2018-04-25T17:26:05.812Z,97310.16
2018-04-25T17:28:32.054Z,97314.39
2018-04-25T17:30:58.314Z,97325.89
2018-04-25T17:33:24.862Z,97323.62
2018-04-25T17:35:51.090Z,97322.78
2018-04-25T17:38:17.355Z,97323.88
2018-04-25T17:40:43.925Z,97321.88
2018-04-25T17:43:10.167Z,97325.42
2018-04-25T17:45:36.626Z,97317.58
2018-04-25T17:48:02.918Z,97332.75
2018-04-25T17:50:29.142Z,97327.59
2018-04-25T17:52:55.395Z,97339.23
2018-04-25T17:55:21.966Z,97347.14
2018-04-25T17:57:48.215Z,97347.52
2018-04-25T18:00:14.495Z,97353.71
2018-04-25T18:02:40.719Z,97348.76
2018-04-25T18:05:06.959Z,97355.91
2018-04-25T18:07:33.323Z,97357.56
2018-04-25T18:09:59.569Z,97357.52
2018-04-25T18:12:25.798Z,97355.38
2018-04-25T18:14:52.067Z,97358.65
2018-04-25T18:17:18.319Z,97363.09
2018-04-25T18:19:44.539Z,97383.52
2018-04-25T18:22:10.800Z,97393.53
2018-04-25T18:24:37.081Z,97380.09
2018-04-25T18:27:03.354Z,97394.30
2018-04-25T18:29:29.646Z,97397.45
2018-04-25T18:31:55.944Z,97396.97
2018-04-25T18:34:22.199Z,97397.20
2018-04-25T18:36:48.643Z,97389.98
2018-04-25T18:39:14.987Z,97392.50
2018-04-25T18:41:41.258Z,97386.92
2018-04-25T18:44:07.625Z,97390.91
2018-04-25T18:46:33.946Z,97368.09
2018-04-25T18:49:00.535Z,97373.50
2018-04-25T18:51:26.810Z,97361.98
2018-04-25T18:53:53.035Z,97361.60
2018-04-25T18:56:19.705Z,97364.29
2018-04-25T18:58:46.251Z,97364.73
2018-04-25T19:01:12.554Z,97366.23
2018-04-25T19:03:38.871Z,97370.98
2018-04-25T19:06:05.192Z,97373.14
2018-04-25T19:08:31.480Z,97370.13
2018-04-25T19:10:57.803Z,97384.72
2018-04-25T19:13:24.226Z,97393.33
2018-04-25T19:15:50.660Z,97398.26
2018-04-25T19:18:16.897Z,97393.56
2018-04-25T19:20:43.393Z,97402.56
2018-04-25T19:23:09.639Z,97402.20
2018-04-25T19:25:36.144Z,97409.02
2018-04-25T19:28:02.444Z,97410.53
2018-04-25T19:30:28.659Z,97416.24
2018-04-25T19:32:54.922Z,97414.09
2018-04-25T19:35:21.182Z,97408.40
2018-04-25T19:37:47.440Z,97405.75
2018-04-25T19:40:13.969Z,97413.36
2018-04-25T19:42:40.237Z,97414.11
2018-04-25T19:45:06.653Z,97416.91
2018-04-25T19:47:33.132Z,97419.17
2018-04-25T19:49:59.466Z,97432.34
2018-04-25T19:52:25.768Z,97419.81
2018-04-25T19:54:52.078Z,97408.91
2018-04-25T19:57:18.425Z,97404.36
2018-04-25T19:59:44.683Z,97413.73
2018-04-25T20:02:10.912Z,97410.32
2018-04-25T20:04:37.338Z,97408.02
2018-04-25T20:07:03.678Z,97402.06
2018-04-25T20:09:29.903Z,97411.70
2018-04-25T20:11:56.425Z,97413.22
2018-04-25T20:14:22.674Z,97419.94
2018-04-25T20:16:49.036Z,97425.59
2018-04-25T20:19:15.385Z,97429.22
2018-04-25T20:21:41.838Z,97426.72
2018-04-25T20:24:08.200Z,97419.30
2018-04-25T20:26:34.474Z,97426.25
2018-04-25T20:29:00.935Z,97421.80
2018-04-25T20:31:27.310Z,97415.73
2018-04-25T20:33:53.744Z,97414.36
2018-04-25T20:36:20.045Z,97417.47
2018-04-25T20:38:46.431Z,97417.50
2018-04-25T20:41:12.690Z,97409.67
2018-04-25T20:43:39.169Z,97416.23
2018-04-25T20:46:05.708Z,97418.30
2018-04-25T20:48:32.130Z,97426.66
2018-04-25T20:50:58.530Z,97424.63
2018-04-25T20:53:25.016Z,97416.76
2018-04-25T20:55:51.278Z,97420.96
2018-04-25T20:58:17.646Z,97417.39
2018-04-25T21:00:44.019Z,97406.73
2018-04-25T21:03:10.686Z,97395.95
2018-04-25T21:05:37.288Z,97402.92
2018-04-25T21:08:03.783Z,97418.50
2018-04-25T21:10:30.406Z,97406.82
2018-04-25T21:12:56.670Z,97408.35
2018-04-25T21:15:23.053Z,97409.13
2018-04-25T21:17:49.360Z,97418.99
2018-04-25T21:20:15.756Z,97419.60
2018-04-25T21:22:41.999Z,97428.00
2018-04-25T21:25:08.275Z,97423.69
2018-04-25T21:27:34.833Z,97430.52
2018-04-25T21:30:01.299Z,97437.12
2018-04-25T21:32:27.891Z,97441.96
2018-04-25T21:34:54.163Z,97446.15
2018-04-25T21:37:20.556Z,97453.99
2018-04-25T21:39:46.819Z,97454.87
2018-04-25T21:42:13.338Z,97462.61
2018-04-25T21:44:39.687Z,97464.63
2018-04-25T21:47:05.986Z,97456.23
2018-04-25T21:49:32.395Z,97451.30
2018-04-25T21:51:58.636Z,97448.63
2018-04-25T21:54:25.163Z,97449.88
2018-04-25T21:56:51.452Z,97438.23
2018-04-25T21:59:17.981Z,97448.30
2018-04-25T22:01:44.339Z,97455.17
2018-04-25T22:04:10.709Z,97450.73
2018-04-25T22:06:36.965Z,97457.39
2018-04-25T22:09:03.324Z,97456.81
2018-04-25T22:11:30.991Z,97471.30
2018-04-25T22:13:57.500Z,97478.20
2018-04-25T22:16:23.841Z,97488.13
2018-04-25T22:18:50.167Z,97486.45
2018-04-25T22:21:16.432Z,97471.22
2018-04-25T22:23:42.737Z,97463.48
2018-04-25T22:26:09.102Z,97448.17
2018-04-25T22:28:35.375Z,97470.72
2018-04-25T22:31:02.856Z,97468.98
2018-04-25T22:33:29.141Z,97466.86
2018-04-25T22:35:55.463Z,97455.47
2018-04-25T22:38:21.835Z,97442.95
2018-04-25T22:40:48.156Z,97453.63
2018-04-25T22:43:14.642Z,97460.06
2018-04-25T22:45:40.968Z,97467.77
2018-04-25T22:48:07.455Z,97475.56
2018-04-25T22:50:33.718Z,97462.56
2018-04-25T22:53:00.021Z,97466.80
2018-04-25T22:55:27.492Z,97475.77
2018-04-25T22:57:53.776Z,97485.11
2018-04-25T23:00:20.187Z,97478.75
2018-04-25T23:02:46.563Z,97482.64
2018-04-25T23:05:13.048Z,97478.33
2018-04-25T23:07:39.456Z,97478.78
2018-04-25T23:10:05.719Z,97480.59
2018-04-25T23:12:32.207Z,97479.34
2018-04-25T23:14:58.508Z,97480.63
2018-04-25T23:17:25.058Z,97481.25
2018-04-25T23:19:51.374Z,97484.72
2018-04-25T23:22:17.959Z,97483.23
2018-04-25T23:24:44.304Z,97479.20
2018-04-25T23:27:10.568Z,97484.14
2018-04-25T23:29:36.986Z,97490.08
2018-04-25T23:32:03.320Z,97489.17
2018-04-25T23:34:29.576Z,97505.94
2018-04-25T23:36:56.206Z,97499.16
2018-04-25T23:39:22.809Z,97500.83
2018-04-25T23:41:49.279Z,97501.27
2018-04-25T23:44:15.566Z,97498.15
2018-04-25T23:46:42.056Z,97494.84
2018-04-25T23:49:08.313Z,97498.63
2018-04-25T23:51:34.727Z,97499.00
2018-04-25T23:54:01.059Z,97491.05
2018-04-25T23:56:27.491Z,97493.36
2018-04-25T23:58:53.812Z,97486.66
